Maria Desgagnes — VCWL — position and weather

sailwx.info

Track history (hours):
 
Tides and Currents Weather Stations Pressure Air Temp Water Temp Dewpoint Dewpoint Depression Visibility Wind Speed Wind Dir Waves Ship Positions

Maria Desgagnes

Last reported at 2014-Jun-27 12:33 UTC. Time now 2014-Aug-02 08:42 UTC.
Position N 46°39' W 071°55'.
Warning: this ship's position is 35 days out of date.

Length 120 m; draft 6.2 m.

Type: Ship. MMSI: 316285000.

Date/timePositionNaut miles runAvg speedWind from/ knotsBaromVisibWave heightAir tempDewpointWater temp
2014-Jun-27 12:33N 46°39' W 071°55'1514.8
2014-Jun-27 11:33N 46°31' W 072°13'1414.5
2014-Jun-27 10:33N 46°22' W 072°30'1313.4
2014-Jun-27 09:33N 46°14' W 072°46'1713.8
2014-Jun-27 08:20N 46°04' W 073°05'1012.9
2014-Jun-27 07:33N 45°56' W 073°13'1414.1
2014-Jun-27 06:33N 45°44' W 073°25'8 7.9
2014-Jun-27 05:31N 45°37' W 073°30'0 0.0
2014-Jun-27 04:31N 45°37' W 073°30'0 0.0
2014-Jun-27 03:31N 45°37' W 073°30'0 0.0
2014-Jun-27 02:31N 45°37' W 073°30'0 0.0
2014-Jun-27 01:31N 45°37' W 073°30'0 0.0
2014-Jun-27 00:31N 45°37' W 073°30'0 0.0
2014-Jun-26 23:16N 45°37' W 073°30'0 0.0
2014-Jun-26 22:28N 45°37' W 073°30'0 0.0
2014-Jun-26 21:28N 45°37' W 073°30'0 0.0
2014-Jun-26 20:28N 45°37' W 073°30'0 0.0
2014-Jun-26 19:28N 45°37' W 073°30'0 0.0
2014-Jun-26 18:28N 45°37' W 073°30'0 0.0
2014-Jun-26 17:28N 45°37' W 073°30'0 0.0
2014-Jun-26 15:16N 45°37' W 073°30'0 0.0
2014-Jun-26 14:04N 45°37' W 073°30'0 0.0
2014-Jun-26 13:31N 45°37' W 073°30'0 0.0
2014-Jun-26 12:31N 45°37' W 073°30'0 0.0
2014-Jun-26 11:28N 45°37' W 073°30'0 0.0
2014-Jun-26 10:31N 45°37' W 073°30'0 0.0
2014-Jun-26 09:31N 45°37' W 073°30'0 0.0
2014-Jun-26 08:31N 45°37' W 073°30'0 0.0
2014-Jun-26 07:31N 45°37' W 073°30'0 0.2
2014-Jun-26 06:31N 45°37' W 073°30'0 0.0
2014-Jun-26 05:31N 45°37' W 073°30'0 0.0
2014-Jun-26 04:31N 45°37' W 073°30'0 0.0
2014-Jun-26 03:28N 45°37' W 073°30'0 0.0
2014-Jun-26 02:31N 45°37' W 073°30'0 0.0
2014-Jun-26 01:31N 45°37' W 073°30'0 0.0
2014-Jun-26 00:31N 45°37' W 073°30'0 0.0
2014-Jun-25 23:31N 45°37' W 073°30'0 0.0
2014-Jun-25 22:31N 45°37' W 073°30'0 0.0
2014-Jun-25 21:31N 45°37' W 073°30'0 0.0
2014-Jun-25 20:31N 45°37' W 073°30'0 0.0
2014-Jun-25 19:31N 45°37' W 073°30'0 0.0
2014-Jun-25 18:31N 45°37' W 073°30'0 0.0
2014-Jun-25 17:31N 45°37' W 073°30'0 0.0
2014-Jun-25 16:31N 45°37' W 073°30'0 0.0
2014-Jun-25 15:31N 45°37' W 073°30'0 0.0
2014-Jun-25 14:31N 45°37' W 073°30'0 0.1
2014-Jun-25 13:34N 45°37' W 073°30'7 7.1
2014-Jun-25 12:33N 45°30' W 073°31'0 0.0
2014-Jun-25 11:33N 45°30' W 073°31'3 2.6
2014-Jun-25 10:33N 45°27' W 073°30'4 3.8
2014-Jun-25 09:33N 45°24' W 073°34'4 4.3
2014-Jun-25 08:34N 45°25' W 073°40'1010.0
2014-Jun-25 07:34N 45°20' W 073°53'2 1.8
2014-Jun-25 06:33N 45°19' W 073°55'1 1.1
2014-Jun-25 05:33N 45°18' W 073°56'6 6.2
2014-Jun-25 04:34N 45°14' W 074°01'10 9.8
2014-Jun-25 03:34N 45°13' W 074°15'99 9.0
2014-Jun-24 16:29N 44°14' W 076°07'1212.3
2014-Jun-24 15:33N 44°08' W 076°21'8 0.2
2014-Jun-22 13:33N 44°02' W 076°28'1812.4
2014-Jun-22 12:08N 44°14' W 076°10'100 8.0
2014-Jun-21 23:33N 45°13' W 074°16'15 7.7
2014-Jun-21 21:33N 45°18' W 073°56'1 0.9
2014-Jun-21 20:33N 45°19' W 073°55'8 8.5
2014-Jun-21 19:33N 45°24' W 073°45'7 6.6
2014-Jun-21 18:33N 45°24' W 073°36'2 1.6
2014-Jun-21 17:33N 45°24' W 073°34'3 2.7
2014-Jun-21 16:33N 45°26' W 073°30'4 4.1
2014-Jun-21 15:30N 45°30' W 073°31'1 1.1
2014-Jun-21 14:33N 45°31' W 073°31'3 2.8
2014-Jun-21 13:33N 45°34' W 073°31'3 3.2
2014-Jun-21 12:33N 45°37' W 073°30'0 0.0
2014-Jun-21 11:33N 45°37' W 073°30'0 0.0
2014-Jun-21 10:33N 45°37' W 073°30'0 0.0
2014-Jun-21 09:33N 45°37' W 073°30'0 0.0
2014-Jun-21 08:33N 45°37' W 073°30'0 0.0
2014-Jun-21 07:30N 45°37' W 073°30'0 0.0
2014-Jun-21 06:33N 45°37' W 073°30'0 0.0
2014-Jun-21 05:33N 45°37' W 073°30'0 0.0
2014-Jun-21 04:33N 45°37' W 073°30'0 0.0
2014-Jun-21 03:33N 45°37' W 073°30'0 0.0
2014-Jun-21 02:33N 45°37' W 073°30'0 0.0
2014-Jun-21 01:33N 45°37' W 073°30'0 0.0
2014-Jun-21 00:33N 45°37' W 073°30'0 0.0
2014-Jun-20 23:30N 45°37' W 073°30'0 0.0
2014-Jun-20 22:33N 45°37' W 073°30'0 0.0
2014-Jun-20 21:33N 45°37' W 073°30'0 0.0
2014-Jun-20 20:33N 45°37' W 073°30'0 0.0
2014-Jun-20 19:33N 45°37' W 073°30'0 0.0
2014-Jun-20 18:33N 45°37' W 073°30'0 0.0
2014-Jun-20 17:33N 45°37' W 073°30'0 0.0
2014-Jun-20 16:33N 45°37' W 073°30'0 0.0
2014-Jun-20 15:33N 45°37' W 073°30'0 0.0
2014-Jun-20 14:33N 45°37' W 073°30'0 0.0
2014-Jun-20 13:33N 45°37' W 073°30'0 0.5
2014-Jun-20 12:34N 45°37' W 073°30'5110.1
2014-Jun-20 07:32N 46°16' W 072°43'1010.7
2014-Jun-20 06:33N 46°21' W 072°30'1211.7
2014-Jun-20 05:33N 46°27' W 072°15'  
Track history (hours):
 
Tides and Currents Weather Stations Pressure Air Temp Water Temp Dewpoint Dewpoint Depression Visibility Wind Speed Wind Dir Waves Ship Positions

Maria Desgagnes

Last reported at 2014-Jun-27 12:33 UTC. Time now 2014-Aug-02 08:42 UTC.
Position N 46°39' W 071°55'.
Warning: this ship's position is 35 days out of date.

Length 120 m; draft 6.2 m.

Type: Ship. MMSI: 316285000.

Date/timePositionNaut miles runAvg speedWind from/ knotsBaromVisibWave heightAir tempDewpointWater temp
2014-Jun-27 12:33N 46°39' W 071°55'1514.8
2014-Jun-27 11:33N 46°31' W 072°13'1414.5
2014-Jun-27 10:33N 46°22' W 072°30'1313.4
2014-Jun-27 09:33N 46°14' W 072°46'1713.8
2014-Jun-27 08:20N 46°04' W 073°05'1012.9
2014-Jun-27 07:33N 45°56' W 073°13'1414.1
2014-Jun-27 06:33N 45°44' W 073°25'8 7.9
2014-Jun-27 05:31N 45°37' W 073°30'0 0.0
2014-Jun-27 04:31N 45°37' W 073°30'0 0.0
2014-Jun-27 03:31N 45°37' W 073°30'0 0.0
2014-Jun-27 02:31N 45°37' W 073°30'0 0.0
2014-Jun-27 01:31N 45°37' W 073°30'0 0.0
2014-Jun-27 00:31N 45°37' W 073°30'0 0.0
2014-Jun-26 23:16N 45°37' W 073°30'0 0.0
2014-Jun-26 22:28N 45°37' W 073°30'0 0.0
2014-Jun-26 21:28N 45°37' W 073°30'0 0.0
2014-Jun-26 20:28N 45°37' W 073°30'0 0.0
2014-Jun-26 19:28N 45°37' W 073°30'0 0.0
2014-Jun-26 18:28N 45°37' W 073°30'0 0.0
2014-Jun-26 17:28N 45°37' W 073°30'0 0.0
2014-Jun-26 15:16N 45°37' W 073°30'0 0.0
2014-Jun-26 14:04N 45°37' W 073°30'0 0.0
2014-Jun-26 13:31N 45°37' W 073°30'0 0.0
2014-Jun-26 12:31N 45°37' W 073°30'0 0.0
2014-Jun-26 11:28N 45°37' W 073°30'0 0.0
2014-Jun-26 10:31N 45°37' W 073°30'0 0.0
2014-Jun-26 09:31N 45°37' W 073°30'0 0.0
2014-Jun-26 08:31N 45°37' W 073°30'0 0.0
2014-Jun-26 07:31N 45°37' W 073°30'0 0.2
2014-Jun-26 06:31N 45°37' W 073°30'0 0.0
2014-Jun-26 05:31N 45°37' W 073°30'0 0.0
2014-Jun-26 04:31N 45°37' W 073°30'0 0.0
2014-Jun-26 03:28N 45°37' W 073°30'0 0.0
2014-Jun-26 02:31N 45°37' W 073°30'0 0.0
2014-Jun-26 01:31N 45°37' W 073°30'0 0.0
2014-Jun-26 00:31N 45°37' W 073°30'0 0.0
2014-Jun-25 23:31N 45°37' W 073°30'0 0.0
2014-Jun-25 22:31N 45°37' W 073°30'0 0.0
2014-Jun-25 21:31N 45°37' W 073°30'0 0.0
2014-Jun-25 20:31N 45°37' W 073°30'0 0.0
2014-Jun-25 19:31N 45°37' W 073°30'0 0.0
2014-Jun-25 18:31N 45°37' W 073°30'0 0.0
2014-Jun-25 17:31N 45°37' W 073°30'0 0.0
2014-Jun-25 16:31N 45°37' W 073°30'0 0.0
2014-Jun-25 15:31N 45°37' W 073°30'0 0.0
2014-Jun-25 14:31N 45°37' W 073°30'0 0.1
2014-Jun-25 13:34N 45°37' W 073°30'7 7.1
2014-Jun-25 12:33N 45°30' W 073°31'0 0.0
2014-Jun-25 11:33N 45°30' W 073°31'3 2.6
2014-Jun-25 10:33N 45°27' W 073°30'4 3.8
2014-Jun-25 09:33N 45°24' W 073°34'4 4.3
2014-Jun-25 08:34N 45°25' W 073°40'1010.0
2014-Jun-25 07:34N 45°20' W 073°53'2 1.8
2014-Jun-25 06:33N 45°19' W 073°55'1 1.1
2014-Jun-25 05:33N 45°18' W 073°56'6 6.2
2014-Jun-25 04:34N 45°14' W 074°01'10 9.8
2014-Jun-25 03:34N 45°13' W 074°15'99 9.0
2014-Jun-24 16:29N 44°14' W 076°07'1212.3
2014-Jun-24 15:33N 44°08' W 076°21'8 0.2
2014-Jun-22 13:33N 44°02' W 076°28'1812.4
2014-Jun-22 12:08N 44°14' W 076°10'100 8.0
2014-Jun-21 23:33N 45°13' W 074°16'15 7.7
2014-Jun-21 21:33N 45°18' W 073°56'1 0.9
2014-Jun-21 20:33N 45°19' W 073°55'8 8.5
2014-Jun-21 19:33N 45°24' W 073°45'7 6.6
2014-Jun-21 18:33N 45°24' W 073°36'2 1.6
2014-Jun-21 17:33N 45°24' W 073°34'3 2.7
2014-Jun-21 16:33N 45°26' W 073°30'4 4.1
2014-Jun-21 15:30N 45°30' W 073°31'1 1.1
2014-Jun-21 14:33N 45°31' W 073°31'3 2.8
2014-Jun-21 13:33N 45°34' W 073°31'3 3.2
2014-Jun-21 12:33N 45°37' W 073°30'0 0.0
2014-Jun-21 11:33N 45°37' W 073°30'0 0.0
2014-Jun-21 10:33N 45°37' W 073°30'0 0.0
2014-Jun-21 09:33N 45°37' W 073°30'0 0.0
2014-Jun-21 08:33N 45°37' W 073°30'0 0.0
2014-Jun-21 07:30N 45°37' W 073°30'0 0.0
2014-Jun-21 06:33N 45°37' W 073°30'0 0.0
2014-Jun-21 05:33N 45°37' W 073°30'0 0.0
2014-Jun-21 04:33N 45°37' W 073°30'0 0.0
2014-Jun-21 03:33N 45°37' W 073°30'0 0.0
2014-Jun-21 02:33N 45°37' W 073°30'0 0.0
2014-Jun-21 01:33N 45°37' W 073°30'0 0.0
2014-Jun-21 00:33N 45°37' W 073°30'0 0.0
2014-Jun-20 23:30N 45°37' W 073°30'0 0.0
2014-Jun-20 22:33N 45°37' W 073°30'0 0.0
2014-Jun-20 21:33N 45°37' W 073°30'0 0.0
2014-Jun-20 20:33N 45°37' W 073°30'0 0.0
2014-Jun-20 19:33N 45°37' W 073°30'0 0.0
2014-Jun-20 18:33N 45°37' W 073°30'0 0.0
2014-Jun-20 17:33N 45°37' W 073°30'0 0.0
2014-Jun-20 16:33N 45°37' W 073°30'0 0.0
2014-Jun-20 15:33N 45°37' W 073°30'0 0.0
2014-Jun-20 14:33N 45°37' W 073°30'0 0.0
2014-Jun-20 13:33N 45°37' W 073°30'0 0.5
2014-Jun-20 12:34N 45°37' W 073°30'5110.1
2014-Jun-20 07:32N 46°16' W 072°43'1010.7
2014-Jun-20 06:33N 46°21' W 072°30'1211.7
2014-Jun-20 05:33N 46°27' W 072°15'  

Dump ship's entire track history